createdAt,value
2022-10-11T00:00:16.651Z,971.77
2022-10-11T00:01:16.095Z,971.79
2022-10-11T00:02:16.354Z,971.77
2022-10-11T00:03:16.680Z,971.77
2022-10-11T00:04:17.009Z,971.79
2022-10-11T00:05:17.362Z,971.77
2022-10-11T00:06:17.576Z,971.79
2022-10-11T00:07:17.884Z,971.77
2022-10-11T00:08:18.203Z,971.76
2022-10-11T00:09:18.517Z,971.76
2022-10-11T00:10:18.851Z,971.75
2022-10-11T00:11:19.065Z,971.73
2022-10-11T00:12:20.592Z,971.74
2022-10-11T00:13:19.614Z,971.73
2022-10-11T00:14:19.981Z,971.75
2022-10-11T00:15:20.177Z,971.77
2022-10-11T00:16:20.491Z,971.76
2022-10-11T00:17:20.805Z,971.77
2022-10-11T00:18:21.113Z,971.80
2022-10-11T00:19:25.283Z,971.77
2022-10-11T00:20:25.472Z,971.78
2022-10-11T00:21:21.960Z,971.76
2022-10-11T00:22:22.196Z,971.76
2022-10-11T00:23:22.557Z,971.78
2022-10-11T00:24:23.524Z,971.77
2022-10-11T00:25:23.948Z,971.77
2022-10-11T00:26:23.335Z,971.75
2022-10-11T00:27:23.658Z,971.79
2022-10-11T00:28:24.027Z,971.79
2022-10-11T00:29:24.246Z,971.74
2022-10-11T00:30:24.565Z,971.73
2022-10-11T00:31:24.873Z,971.73
2022-10-11T00:33:39.624Z,971.77
2022-10-11T00:34:39.923Z,971.81
2022-10-11T00:35:40.222Z,971.76
2022-10-11T00:36:40.565Z,971.77
2022-10-11T00:37:40.767Z,971.77
2022-10-11T00:38:41.076Z,971.80
2022-10-11T00:39:41.400Z,971.75
2022-10-11T00:40:41.708Z,971.73
2022-10-11T00:41:42.024Z,971.77
2022-10-11T00:42:42.335Z,971.78
2022-10-11T00:43:42.649Z,971.80
2022-10-11T00:44:42.963Z,971.81
2022-10-11T00:45:43.282Z,971.81
2022-10-11T00:46:43.657Z,971.82
2022-10-11T00:47:43.859Z,971.83
2022-10-11T00:48:44.172Z,971.82
2022-10-11T00:49:44.480Z,971.86
2022-10-11T00:50:44.791Z,971.87
2022-10-11T00:51:45.133Z,971.89
2022-10-11T02:55:31.764Z,971.55
2022-10-11T02:56:32.002Z,971.51
2022-10-11T02:57:32.236Z,971.49
2022-10-11T02:58:32.463Z,971.48
2022-10-11T02:59:32.786Z,971.43
2022-10-11T03:00:33.157Z,971.46
2022-10-11T03:01:33.484Z,971.41
2022-10-11T03:02:33.597Z,971.43
2022-10-11T03:03:33.934Z,971.41
2022-10-11T03:04:34.309Z,971.45
2022-10-11T03:05:34.519Z,971.40
2022-10-11T03:06:34.846Z,971.39
2022-10-11T03:07:35.180Z,971.36
2022-10-11T03:08:35.388Z,971.35
2022-10-11T03:09:35.751Z,971.40
2022-10-11T03:10:35.960Z,971.41
2022-10-11T03:11:36.376Z,971.40
2022-10-11T03:12:36.608Z,971.45
2022-10-11T03:13:36.825Z,971.49
2022-10-11T03:14:37.171Z,971.48
2022-10-11T03:15:37.378Z,971.52
2022-10-11T03:16:37.696Z,971.46
2022-10-11T03:17:38.001Z,971.49
2022-10-11T03:18:38.322Z,971.50
2022-10-11T03:19:38.672Z,971.49
2022-10-11T03:20:38.920Z,971.43
2022-10-11T03:21:39.128Z,971.47
2022-10-11T03:22:39.462Z,971.48
2022-10-11T03:23:39.680Z,971.39
2022-10-11T03:24:39.996Z,971.43
2022-10-11T03:25:40.342Z,971.41
2022-10-11T03:26:40.566Z,971.41
2022-10-11T03:27:40.773Z,971.38
2022-10-11T03:28:41.177Z,971.45
2022-10-11T03:29:42.287Z,971.43
2022-10-11T03:30:41.643Z,971.45
2022-10-11T03:31:41.987Z,971.49
2022-10-11T03:32:42.302Z,971.51
2022-10-11T03:33:42.616Z,971.52
2022-10-11T03:34:42.909Z,971.49
2022-10-11T03:35:43.232Z,971.50
2022-10-11T03:36:43.572Z,971.50
2022-10-11T03:37:43.881Z,971.56
2022-10-11T03:38:44.234Z,971.54
2022-10-11T03:39:44.417Z,971.56
2022-10-11T03:40:44.710Z,971.52
2022-10-11T03:41:45.059Z,971.56
2022-10-11T03:42:45.282Z,971.56
2022-10-11T03:43:45.499Z,971.61
2022-10-11T03:44:45.819Z,971.63
2022-10-11T03:45:46.136Z,971.67
2022-10-11T03:46:46.450Z,971.66
2022-10-11T03:47:46.780Z,971.60
2022-10-11T03:48:47.099Z,971.65
2022-10-11T03:49:47.421Z,971.64
2022-10-11T03:50:47.735Z,971.65
2022-10-11T03:51:48.095Z,971.64
2022-10-11T03:52:48.287Z,971.64
2022-10-11T03:53:48.631Z,971.59
2022-10-11T03:54:48.829Z,971.64
2022-10-11T03:55:49.163Z,971.66
2022-10-11T03:56:49.368Z,971.62
2022-10-11T03:57:49.669Z,971.64
2022-10-11T03:58:49.988Z,971.65
2022-10-11T03:59:52.146Z,971.64
2022-10-11T04:00:50.590Z,971.62
2022-10-11T04:01:50.966Z,971.63
2022-10-11T04:02:51.189Z,971.66
2022-10-11T04:03:51.501Z,971.64
2022-10-11T04:04:51.789Z,971.64
2022-10-11T04:05:52.110Z,971.67
2022-10-11T04:06:52.452Z,971.64
2022-10-11T04:07:52.659Z,971.65
2022-10-11T04:08:53.008Z,971.68
2022-10-11T04:09:53.312Z,971.68
2022-10-11T04:10:55.420Z,971.65
2022-10-11T04:11:53.838Z,971.66
2022-10-11T04:12:54.194Z,971.68
2022-10-11T04:13:54.406Z,971.66
2022-10-11T04:14:54.717Z,971.68
2022-10-11T04:15:55.128Z,971.68
2022-10-11T04:16:58.404Z,971.69
2022-10-11T04:17:56.658Z,971.63
2022-10-11T04:18:55.939Z,971.68
2022-10-11T04:19:56.137Z,971.69
2022-10-11T04:20:56.456Z,971.73
2022-10-11T04:21:56.784Z,971.72
2022-10-11T04:22:57.108Z,971.72
2022-10-11T04:23:57.461Z,971.70
2022-10-11T04:24:57.655Z,971.69
2022-10-11T04:25:57.993Z,971.70
2022-10-11T04:26:58.187Z,971.71
2022-10-11T04:27:58.500Z,971.69
2022-10-11T04:28:58.941Z,971.66
2022-10-11T04:29:59.026Z,971.67
2022-10-11T04:30:59.372Z,971.66
2022-10-11T04:31:59.709Z,971.65
2022-10-11T04:32:59.917Z,971.65
2022-10-11T04:34:00.266Z,971.65
2022-10-11T04:35:00.579Z,971.64
2022-10-11T04:36:01.019Z,971.64
2022-10-11T04:37:01.126Z,971.64
2022-10-11T04:38:01.808Z,971.62
2022-10-11T04:39:01.904Z,971.68
2022-10-11T04:40:02.021Z,971.70
2022-10-11T04:41:02.366Z,971.68
2022-10-11T04:42:02.708Z,971.70
2022-10-11T04:43:02.903Z,971.70
2022-10-11T04:44:03.192Z,971.69
2022-10-11T04:45:03.505Z,971.70
2022-10-11T04:46:04.193Z,971.70
2022-10-11T04:47:04.147Z,971.69
2022-10-11T04:48:04.457Z,971.72
2022-10-11T04:49:04.769Z,971.73
2022-10-11T04:50:05.093Z,971.75
2022-10-11T04:51:05.397Z,971.72
2022-10-11T04:52:05.781Z,971.76
2022-10-11T04:53:06.781Z,971.76
2022-10-11T04:54:06.968Z,971.77
2022-10-11T04:55:06.584Z,971.82
2022-10-11T04:56:07.351Z,971.80
2022-10-11T04:57:07.228Z,971.79
2022-10-11T04:58:07.583Z,971.79
2022-10-11T04:59:07.785Z,971.81
2022-10-11T05:00:08.099Z,971.80
2022-10-11T05:01:08.423Z,971.82
2022-10-11T05:02:08.850Z,971.84
2022-10-11T05:03:08.970Z,971.78
2022-10-11T05:04:09.263Z,971.83
2022-10-11T05:05:09.603Z,971.84
2022-10-11T05:06:10.176Z,971.83
2022-10-11T05:07:10.255Z,971.85
2022-10-11T05:08:10.568Z,971.84
2022-10-11T05:09:10.869Z,971.85
2022-10-11T05:10:11.191Z,971.86
2022-10-11T05:11:11.393Z,971.86
2022-10-11T05:12:11.742Z,971.82
2022-10-11T05:13:11.930Z,971.83
2022-10-11T05:14:12.283Z,971.83
2022-10-11T05:15:14.289Z,971.85
2022-10-11T05:16:13.030Z,971.81
2022-10-11T05:17:13.008Z,971.83
2022-10-11T05:18:13.236Z,971.86
2022-10-11T05:19:13.428Z,971.86
2022-10-11T05:20:13.753Z,971.85
2022-10-11T05:21:14.051Z,971.84
2022-10-11T05:22:14.344Z,971.86
2022-10-11T05:23:14.688Z,971.83
2022-10-11T05:24:14.927Z,971.85
2022-10-11T05:25:15.133Z,971.82
2022-10-11T05:26:15.454Z,971.86
2022-10-11T05:27:15.783Z,971.86
2022-10-11T05:28:16.209Z,971.89
2022-10-11T05:29:16.455Z,971.89
2022-10-11T05:30:16.689Z,971.88
2022-10-11T05:31:16.866Z,971.99
2022-10-11T05:32:17.189Z,971.95
2022-10-11T05:33:17.522Z,971.93
2022-10-11T05:34:17.841Z,971.96
2022-10-11T05:35:18.185Z,971.98
2022-10-11T05:36:18.414Z,972.00
2022-10-11T05:37:18.602Z,971.96
2022-10-11T05:38:18.914Z,971.97
2022-10-11T05:39:19.233Z,971.96
2022-10-11T05:40:19.518Z,972.02
2022-10-11T05:41:19.871Z,972.04
2022-10-11T05:42:20.064Z,972.03
2022-10-11T05:43:20.393Z,972.07
2022-10-11T05:44:20.712Z,972.07
2022-10-11T05:45:22.839Z,972.04
2022-10-11T05:46:21.288Z,972.06
2022-10-11T05:47:21.471Z,972.06
2022-10-11T05:48:21.785Z,972.11
2022-10-11T05:49:22.108Z,972.10
2022-10-11T05:50:24.438Z,972.11
2022-10-11T05:51:22.686Z,972.14
2022-10-11T05:52:26.880Z,972.15
2022-10-11T05:53:23.994Z,972.16
2022-10-11T05:54:23.492Z,972.13
2022-10-11T05:55:23.852Z,972.19
2022-10-11T05:56:24.048Z,972.15
2022-10-11T05:57:24.365Z,972.19
2022-10-11T05:58:24.675Z,972.14
2022-10-11T05:59:24.983Z,972.17
2022-10-11T06:00:25.292Z,972.18
2022-10-11T06:01:25.668Z,972.16
2022-10-11T06:02:25.873Z,972.19
2022-10-11T06:03:26.076Z,972.19
2022-10-11T06:04:26.299Z,972.21
2022-10-11T06:05:26.609Z,972.21
2022-10-11T06:06:26.931Z,972.25
2022-10-11T06:07:27.287Z,972.27
2022-10-11T06:08:29.308Z,972.27
2022-10-11T06:09:27.727Z,972.24
2022-10-11T06:10:28.139Z,972.27
2022-10-11T06:11:28.284Z,972.28
2022-10-11T06:12:28.633Z,972.29
2022-10-11T06:13:29.591Z,972.28
2022-10-11T06:14:29.126Z,972.29
2022-10-11T06:15:29.361Z,972.32
2022-10-11T06:16:29.560Z,972.31
2022-10-11T06:17:29.870Z,972.31
2022-10-11T06:18:30.202Z,972.32
2022-10-11T06:19:30.511Z,972.30
2022-10-11T06:20:30.860Z,972.30
2022-10-11T06:21:32.892Z,972.28
2022-10-11T06:22:31.311Z,972.31
2022-10-11T06:23:31.615Z,972.31
2022-10-11T06:24:31.946Z,972.36
2022-10-11T06:25:32.297Z,972.33
2022-10-11T06:26:32.641Z,972.36
2022-10-11T06:27:32.945Z,972.33
2022-10-11T06:28:33.334Z,972.34
2022-10-11T06:29:33.557Z,972.36
2022-10-11T06:30:33.896Z,972.36
2022-10-11T06:31:34.252Z,972.35
2022-10-11T06:32:35.228Z,972.35
2022-10-11T06:33:34.732Z,972.34
2022-10-11T06:34:35.049Z,972.35
2022-10-11T06:35:35.389Z,972.34
2022-10-11T06:36:37.558Z,972.37
2022-10-11T06:37:35.964Z,972.40
2022-10-11T06:38:38.009Z,972.37
2022-10-11T06:39:37.368Z,972.42
2022-10-11T06:40:36.867Z,972.43
2022-10-11T06:41:37.195Z,972.40
2022-10-11T06:42:37.513Z,972.46
2022-10-11T06:43:37.842Z,972.47
2022-10-11T06:44:38.201Z,972.48
2022-10-11T06:45:38.390Z,972.51
2022-10-11T06:46:38.737Z,972.52
2022-10-11T06:47:40.891Z,972.46
2022-10-11T06:48:39.294Z,972.47
2022-10-11T06:49:39.639Z,972.52
2022-10-11T06:50:58.540Z,972.47
2022-10-11T06:51:41.183Z,972.48
2022-10-11T06:52:40.434Z,972.47
2022-10-11T06:53:40.753Z,972.50
2022-10-11T06:54:45.083Z,972.53
2022-10-11T06:55:41.399Z,972.55
2022-10-11T06:56:41.761Z,972.52
2022-10-11T06:57:41.972Z,972.49
2022-10-11T06:58:42.305Z,972.48
2022-10-11T06:59:42.624Z,972.57
2022-10-11T07:00:42.985Z,972.55
2022-10-11T07:01:43.241Z,972.56
2022-10-11T07:02:43.434Z,972.53
2022-10-11T07:03:43.748Z,972.60
2022-10-11T07:04:44.062Z,972.61
2022-10-11T07:05:44.375Z,972.59
2022-10-11T07:06:44.739Z,972.63
2022-10-11T07:07:44.917Z,972.63
2022-10-11T07:08:45.225Z,972.70
2022-10-11T07:09:45.549Z,972.72
2022-10-11T07:10:45.843Z,972.74
2022-10-11T07:11:46.186Z,972.73
2022-10-11T07:12:46.516Z,972.75
2022-10-11T07:13:46.834Z,972.76
2022-10-11T07:14:47.138Z,972.78
2022-10-11T07:15:47.451Z,972.74
2022-10-11T07:16:47.799Z,972.77
2022-10-11T07:17:48.028Z,972.81
2022-10-11T07:18:48.271Z,972.73
2022-10-11T07:19:48.529Z,972.77
2022-10-11T07:20:48.733Z,972.79
2022-10-11T07:21:49.046Z,972.77
2022-10-11T07:22:49.344Z,972.82
2022-10-11T07:23:49.653Z,972.79
2022-10-11T07:24:50.009Z,972.76
2022-10-11T07:25:50.205Z,972.76
2022-10-11T07:26:50.539Z,972.82
2022-10-11T07:27:50.856Z,972.79
2022-10-11T07:28:51.244Z,972.86
2022-10-11T07:29:51.490Z,972.85
2022-10-11T07:30:51.805Z,972.87
2022-10-11T07:31:52.128Z,972.87
2022-10-11T07:32:52.476Z,972.85
2022-10-11T07:33:52.659Z,972.85
2022-10-11T07:34:52.923Z,972.84
2022-10-11T07:35:53.961Z,972.82
2022-10-11T07:36:53.458Z,972.81
2022-10-11T07:37:53.802Z,972.82
2022-10-11T07:38:54.014Z,972.81
2022-10-11T07:39:54.330Z,972.84
2022-10-11T07:40:56.478Z,972.84
2022-10-11T07:41:54.886Z,972.80
2022-10-11T07:42:55.226Z,972.84
2022-10-11T07:43:55.545Z,972.83
2022-10-11T07:44:55.853Z,972.86
2022-10-11T07:45:56.179Z,972.88
2022-10-11T07:46:56.520Z,972.88
2022-10-11T07:47:56.869Z,972.90
2022-10-11T07:48:57.101Z,972.89
2022-10-11T07:49:57.315Z,972.93
2022-10-11T07:50:57.634Z,972.93
2022-10-11T07:51:59.767Z,972.88
2022-10-11T07:52:58.182Z,972.92
2022-10-11T07:54:00.506Z,972.91
2022-10-11T07:54:58.701Z,972.90
2022-10-11T07:55:58.986Z,972.94
2022-10-11T07:56:59.290Z,972.90
2022-10-11T07:57:59.603Z,972.93
2022-10-11T07:58:59.961Z,972.92
2022-10-11T08:00:00.210Z,972.92
2022-10-11T08:01:00.597Z,972.96
2022-10-11T08:02:00.937Z,972.98
2022-10-11T08:03:01.147Z,972.96
2022-10-11T08:04:01.455Z,973.01
2022-10-11T08:05:01.742Z,972.97
2022-10-11T08:06:01.982Z,973.00
2022-10-11T08:07:02.344Z,972.96
2022-10-11T08:08:02.546Z,972.95
2022-10-11T08:09:02.872Z,972.96
2022-10-11T08:10:03.182Z,972.96
2022-10-11T08:11:03.489Z,972.98
2022-10-11T08:12:03.854Z,972.95
2022-10-11T08:13:04.665Z,972.99
2022-10-11T08:14:04.420Z,972.96
2022-10-11T08:15:04.608Z,972.99
2022-10-11T08:16:05.413Z,972.96
2022-10-11T08:17:05.210Z,972.96
2022-10-11T08:18:05.455Z,972.99
2022-10-11T08:19:06.432Z,972.97
2022-10-11T08:20:05.919Z,972.98
2022-10-11T08:21:06.277Z,972.98
2022-10-11T08:22:06.475Z,972.93
2022-10-11T08:23:06.783Z,972.96
2022-10-11T08:24:07.102Z,972.96
2022-10-11T08:25:07.421Z,972.98
2022-10-11T08:26:08.252Z,973.00
2022-10-11T08:27:08.028Z,972.96
2022-10-11T08:28:08.395Z,972.95
2022-10-11T08:29:08.546Z,972.96
2022-10-11T08:30:08.869Z,972.97
2022-10-11T08:31:09.224Z,972.98
2022-10-11T08:32:09.421Z,972.98
2022-10-11T08:33:09.729Z,973.01
2022-10-11T08:34:10.047Z,973.03
2022-10-11T08:35:10.372Z,972.97
2022-10-11T08:36:11.150Z,973.02
2022-10-11T08:37:10.966Z,973.01
2022-10-11T08:38:11.289Z,973.04
2022-10-11T08:39:11.611Z,972.97
2022-10-11T08:40:11.930Z,972.96
2022-10-11T08:41:12.275Z,972.92
2022-10-11T08:42:12.502Z,972.95
2022-10-11T08:43:12.695Z,972.96
2022-10-11T08:44:13.010Z,972.94
2022-10-11T08:45:14.078Z,972.93
2022-10-11T08:46:13.554Z,972.93
2022-10-11T08:47:13.944Z,972.87
2022-10-11T08:48:14.186Z,972.91
2022-10-11T08:49:14.375Z,972.91
2022-10-11T08:50:16.603Z,972.87
2022-10-11T08:51:15.024Z,972.89
2022-10-11T08:52:15.346Z,972.86
2022-10-11T08:53:16.663Z,972.88
2022-10-11T08:54:15.903Z,972.87
2022-10-11T08:55:16.232Z,972.89
2022-10-11T08:56:16.558Z,972.92
2022-10-11T08:57:16.884Z,972.87
2022-10-11T08:58:17.243Z,972.82
2022-10-11T08:59:17.436Z,972.86
2022-10-11T09:00:17.744Z,972.87
2022-10-11T09:01:18.131Z,972.81
2022-10-11T09:02:18.332Z,972.84
2022-10-11T09:03:18.675Z,972.81
2022-10-11T09:04:18.884Z,972.79
2022-10-11T09:05:19.213Z,972.84
2022-10-11T09:06:19.587Z,972.81
2022-10-11T09:07:19.781Z,972.77
2022-10-11T09:08:20.094Z,972.80
2022-10-11T09:09:20.418Z,972.77
2022-10-11T09:10:20.833Z,972.79
2022-10-11T09:11:21.064Z,972.77
2022-10-11T09:12:21.388Z,972.76
2022-10-11T09:13:22.689Z,972.75
2022-10-11T09:14:21.969Z,972.79
2022-10-11T09:15:22.318Z,972.78
2022-10-11T09:16:22.622Z,972.78
2022-10-11T09:17:22.952Z,972.74
2022-10-11T09:18:23.256Z,972.80
2022-10-11T09:19:23.575Z,972.70
2022-10-11T09:20:23.973Z,972.71
2022-10-11T09:21:24.187Z,972.67
2022-10-11T09:22:29.510Z,972.70
2022-10-11T09:23:25.856Z,972.70
2022-10-11T09:24:25.110Z,972.66
2022-10-11T09:25:25.436Z,972.65
2022-10-11T09:26:25.796Z,972.66
2022-10-11T09:27:50.423Z,972.66
2022-10-11T09:28:27.315Z,972.64
2022-10-11T09:29:26.574Z,972.56
2022-10-11T09:30:26.919Z,972.60
2022-10-11T09:31:27.275Z,972.63
2022-10-11T09:32:27.472Z,972.60
2022-10-11T09:33:27.794Z,972.63
2022-10-11T09:34:28.138Z,972.62
2022-10-11T09:35:28.330Z,972.60
2022-10-11T09:36:28.628Z,972.60
2022-10-11T09:37:28.978Z,972.60
2022-10-11T09:38:29.172Z,972.63
2022-10-11T09:39:29.478Z,972.64
2022-10-11T09:40:29.793Z,972.58
2022-10-11T09:41:30.112Z,972.62
2022-10-11T09:42:30.469Z,972.59
2022-10-11T09:43:32.608Z,972.57
2022-10-11T09:44:31.012Z,972.55
2022-10-11T09:45:31.316Z,972.54
2022-10-11T09:46:31.640Z,972.54
2022-10-11T09:47:31.951Z,972.54
2022-10-11T09:48:32.294Z,972.54
2022-10-11T09:49:32.505Z,972.51
2022-10-11T09:50:32.808Z,972.53
2022-10-11T09:51:33.088Z,972.47
2022-10-11T09:52:33.406Z,972.48
2022-10-11T09:53:33.770Z,972.42
2022-10-11T09:54:33.953Z,972.46
2022-10-11T09:55:34.271Z,972.50
2022-10-11T09:56:34.564Z,972.48
2022-10-11T09:57:34.855Z,972.48
2022-10-11T09:58:35.221Z,972.52
2022-10-11T09:59:36.171Z,972.50
2022-10-11T10:00:37.469Z,972.46
2022-10-11T10:01:36.035Z,972.44
2022-10-11T10:02:36.296Z,972.43
2022-10-11T10:03:36.494Z,972.44
2022-10-11T10:04:36.792Z,972.44
2022-10-11T10:05:37.141Z,972.44
2022-10-11T10:06:37.440Z,972.43
2022-10-11T10:07:37.753Z,972.38
2022-10-11T10:08:38.052Z,972.40
2022-10-11T10:09:39.163Z,972.49
2022-10-11T10:10:38.680Z,972.42
2022-10-11T10:11:38.898Z,972.45
2022-10-11T10:12:39.246Z,972.43
2022-10-11T10:13:39.455Z,972.36
2022-10-11T10:14:39.773Z,972.39
2022-10-11T10:15:40.081Z,972.29
2022-10-11T10:16:40.407Z,972.37
2022-10-11T10:17:40.729Z,972.34
2022-10-11T10:18:41.032Z,972.32
2022-10-11T10:19:45.086Z,972.34
2022-10-11T10:20:41.684Z,972.31
2022-10-11T10:21:42.014Z,972.34
2022-10-11T10:22:42.327Z,972.35
2022-10-11T10:23:42.626Z,972.35
2022-10-11T10:24:42.945Z,972.37
2022-10-11T10:25:44.024Z,972.31
2022-10-11T10:26:43.547Z,972.35
2022-10-11T10:27:43.784Z,972.30
2022-10-11T10:28:44.130Z,972.37
2022-10-11T10:29:44.327Z,972.33
2022-10-11T10:30:46.445Z,972.31
2022-10-11T10:32:09.301Z,972.28
2022-10-11T10:32:48.554Z,972.25
2022-10-11T10:33:45.495Z,972.20
2022-10-11T10:34:45.824Z,972.24
2022-10-11T10:35:50.073Z,972.25
2022-10-11T10:36:46.417Z,972.21
2022-10-11T10:37:46.709Z,972.36
2022-10-11T10:38:51.301Z,972.32
2022-10-11T10:39:48.356Z,972.33
2022-10-11T10:40:47.635Z,972.36
2022-10-11T10:41:47.833Z,972.30
2022-10-11T10:42:48.146Z,972.24
2022-10-11T10:43:48.466Z,972.25
2022-10-11T10:44:48.769Z,972.22
2022-10-11T10:45:49.074Z,972.24
2022-10-11T10:46:49.368Z,972.29
2022-10-11T10:47:49.680Z,972.21
2022-10-11T10:49:55.127Z,972.29
2022-10-11T10:50:50.490Z,972.24
2022-10-11T10:51:52.646Z,972.28
2022-10-11T10:52:51.052Z,972.24
2022-10-11T10:53:51.356Z,972.22
2022-10-11T10:54:55.586Z,972.22
2022-10-11T10:55:51.962Z,972.22
2022-10-11T10:56:52.282Z,972.23
2022-10-11T10:57:52.579Z,972.18
2022-10-11T10:58:52.903Z,972.18
2022-10-11T10:59:53.259Z,972.20
2022-10-11T11:00:53.451Z,972.21
2022-10-11T11:01:53.812Z,972.25
2022-10-11T11:02:54.117Z,972.17
2022-10-11T11:03:54.337Z,972.18
2022-10-11T11:04:54.710Z,972.17
2022-10-11T11:05:54.978Z,972.15
2022-10-11T11:06:55.170Z,972.06
2022-10-11T11:07:55.520Z,972.01
2022-10-11T11:08:55.816Z,972.00
2022-10-11T11:09:57.952Z,971.94
2022-10-11T11:10:56.355Z,972.10
2022-10-11T11:11:56.689Z,972.08
2022-10-11T11:13:00.628Z,972.08
2022-10-11T11:13:57.094Z,972.09
2022-10-11T11:14:57.414Z,972.14
2022-10-11T11:15:57.734Z,972.10
2022-10-11T11:16:58.074Z,972.12
2022-10-11T11:17:58.284Z,972.13
2022-10-11T11:18:58.589Z,972.10
2022-10-11T11:19:58.909Z,972.06
2022-10-11T11:20:59.244Z,972.04
2022-10-11T11:21:59.564Z,972.00
2022-10-11T11:23:03.699Z,971.94
2022-10-11T11:24:04.027Z,971.87
2022-10-11T11:25:00.499Z,971.84
2022-10-11T11:26:00.830Z,972.00
2022-10-11T11:27:01.185Z,971.97
2022-10-11T11:28:01.476Z,971.98
2022-10-11T11:29:01.797Z,971.96
2022-10-11T11:30:02.135Z,971.93
2022-10-11T11:31:02.448Z,971.91
2022-10-11T11:32:02.594Z,971.87
2022-10-11T11:33:02.894Z,971.86
2022-10-11T11:34:03.223Z,971.83
2022-10-11T11:35:07.382Z,971.84
2022-10-11T11:36:04.199Z,971.81
2022-10-11T11:37:04.110Z,971.80
2022-10-11T11:38:06.493Z,971.71
2022-10-11T11:39:04.635Z,971.78
2022-10-11T11:40:04.928Z,971.76
2022-10-11T11:41:05.548Z,971.68
2022-10-11T11:42:05.485Z,971.66
2022-10-11T11:43:05.810Z,971.58
2022-10-11T11:44:07.987Z,971.53
2022-10-11T11:45:06.390Z,971.79
2022-10-11T11:46:06.729Z,971.72
2022-10-11T11:47:06.929Z,971.64
2022-10-11T11:48:07.255Z,971.70
2022-10-11T11:49:12.096Z,971.68
2022-10-11T11:50:08.846Z,971.73
2022-10-11T11:51:08.402Z,971.68
2022-10-11T11:52:08.407Z,971.63
2022-10-11T11:53:08.734Z,971.62
2022-10-11T11:54:09.067Z,971.70
2022-10-11T11:55:09.370Z,971.65
2022-10-11T11:56:09.675Z,971.64
2022-10-11T11:57:09.990Z,971.66
2022-10-11T11:58:10.339Z,971.68
2022-10-11T11:59:10.669Z,971.72
2022-10-11T12:00:10.964Z,971.73
2022-10-11T12:01:11.324Z,971.75
2022-10-11T12:02:11.536Z,971.73
2022-10-11T12:03:11.835Z,971.71
2022-10-11T12:04:12.128Z,971.67
2022-10-11T12:05:12.422Z,971.70
2022-10-11T12:06:12.794Z,971.67
2022-10-11T12:07:17.328Z,971.67
2022-10-11T12:08:13.242Z,971.65
2022-10-11T12:09:13.551Z,971.66
2022-10-11T12:10:13.885Z,971.67
2022-10-11T12:11:14.184Z,971.67
2022-10-11T12:12:14.492Z,971.71
2022-10-11T12:13:14.780Z,971.61
2022-10-11T12:14:15.084Z,971.73
2022-10-11T12:15:15.377Z,971.64
2022-10-11T12:16:15.721Z,971.69
2022-10-11T12:17:16.043Z,971.67
2022-10-11T12:18:16.323Z,971.71
2022-10-11T12:19:16.602Z,971.65
2022-10-11T12:20:17.692Z,971.69
2022-10-11T12:21:17.166Z,971.65
2022-10-11T12:22:17.482Z,971.65
2022-10-11T12:23:19.936Z,971.68
2022-10-11T12:24:17.980Z,971.57
2022-10-11T12:25:18.828Z,971.55
2022-10-11T12:26:18.631Z,971.52
2022-10-11T12:27:18.962Z,971.48
2022-10-11T12:28:19.300Z,971.49
2022-10-11T12:29:20.798Z,971.48
2022-10-11T12:30:19.947Z,971.51
2022-10-11T12:31:20.143Z,971.56
2022-10-11T12:32:20.443Z,971.58
2022-10-11T12:33:20.779Z,971.53
2022-10-11T12:34:20.979Z,971.48
2022-10-11T12:35:21.288Z,971.51
2022-10-11T12:36:23.412Z,971.55
2022-10-11T12:37:21.985Z,971.53
2022-10-11T12:38:22.178Z,971.57
2022-10-11T12:39:26.294Z,971.55
2022-10-11T12:40:22.806Z,971.54
2022-10-11T12:41:23.109Z,971.56
2022-10-11T12:42:23.423Z,971.52
2022-10-11T12:43:23.720Z,971.48
2022-10-11T12:44:25.844Z,971.43
2022-10-11T12:45:24.390Z,971.44
2022-10-11T12:46:24.688Z,971.45
2022-10-11T12:47:24.982Z,971.43
2022-10-11T12:48:28.660Z,971.43
2022-10-11T12:49:26.561Z,971.41
2022-10-11T12:50:25.839Z,971.42
2022-10-11T12:51:26.026Z,971.42
2022-10-11T12:52:26.415Z,971.36
2022-10-11T12:53:30.356Z,971.39
2022-10-11T12:54:29.960Z,971.50
2022-10-11T12:55:28.116Z,971.52
2022-10-11T12:56:27.409Z,971.47
2022-10-11T12:57:27.624Z,971.49
2022-10-11T12:58:27.948Z,971.47
2022-10-11T12:59:28.272Z,971.49
2022-10-11T13:00:28.566Z,971.48
2022-10-11T13:01:28.939Z,971.47
2022-10-11T13:02:31.047Z,971.42
2022-10-11T13:03:32.280Z,971.42
2022-10-11T13:04:29.795Z,971.44
2022-10-11T13:05:30.110Z,971.40
2022-10-11T13:06:30.417Z,971.41
2022-10-11T13:07:30.747Z,971.39
2022-10-11T13:08:31.044Z,971.44
2022-10-11T13:09:35.386Z,971.39
2022-10-11T13:10:31.629Z,971.42
2022-10-11T13:11:31.941Z,971.38
2022-10-11T13:12:32.279Z,971.39
2022-10-11T13:13:32.568Z,971.42
2022-10-11T13:14:32.869Z,971.42
2022-10-11T13:15:33.180Z,971.41
2022-10-11T13:16:34.265Z,971.43
2022-10-11T13:17:38.196Z,971.46
2022-10-11T13:18:35.070Z,971.47
2022-10-11T13:19:34.404Z,971.46
2022-10-11T13:20:37.434Z,971.45
2022-10-11T13:21:35.879Z,971.49
2022-10-11T13:22:35.134Z,971.50
2022-10-11T13:23:35.443Z,971.51
2022-10-11T13:24:35.766Z,971.57
2022-10-11T13:25:36.066Z,971.53
2022-10-11T13:26:36.380Z,971.59
2022-10-11T13:27:36.688Z,971.59
2022-10-11T13:28:37.066Z,971.62
2022-10-11T13:29:41.165Z,971.58
2022-10-11T13:30:37.513Z,971.67
2022-10-11T13:31:37.820Z,971.60
2022-10-11T13:32:38.124Z,971.59
2022-10-11T13:33:39.189Z,971.63
2022-10-11T13:34:38.703Z,971.63
2022-10-11T13:35:39.036Z,971.58
2022-10-11T13:36:39.369Z,971.62
2022-10-11T13:37:39.705Z,971.67
2022-10-11T13:38:39.991Z,971.66
2022-10-11T13:39:40.290Z,971.63
2022-10-11T13:40:40.584Z,971.70
2022-10-11T13:41:40.899Z,971.74
2022-10-11T13:42:41.220Z,971.74
2022-10-11T13:43:41.525Z,971.74
2022-10-11T13:44:41.823Z,971.70
2022-10-11T13:45:42.150Z,971.71
2022-10-11T13:46:42.445Z,971.71
2022-10-11T13:47:42.774Z,971.75
2022-10-11T13:48:43.082Z,971.75
2022-10-11T13:49:43.376Z,971.76
2022-10-11T13:50:43.670Z,971.78
2022-10-11T13:51:43.963Z,971.79
2022-10-11T13:52:44.332Z,971.77
2022-10-11T13:53:44.514Z,971.77
2022-10-11T13:54:44.826Z,971.78
2022-10-11T13:55:45.183Z,971.77
2022-10-11T13:56:45.474Z,971.80
2022-10-11T13:57:45.790Z,971.77
2022-10-11T13:58:46.094Z,971.80
2022-10-11T13:59:46.393Z,971.84
2022-10-11T14:00:46.731Z,971.32
2022-10-11T14:01:47.090Z,971.27
2022-10-11T14:02:47.327Z,971.28
2022-10-11T14:03:47.637Z,971.29
2022-10-11T14:04:47.936Z,971.30
2022-10-11T14:05:48.271Z,971.30
2022-10-11T14:06:48.573Z,971.27
2022-10-11T14:07:48.866Z,971.24
2022-10-11T14:08:49.216Z,971.24
2022-10-11T14:09:49.398Z,971.26
2022-10-11T14:10:54.211Z,971.31
2022-10-11T14:11:50.997Z,971.31
2022-10-11T14:12:50.236Z,971.26
2022-10-11T14:13:50.550Z,971.28
2022-10-11T14:14:54.695Z,971.29
2022-10-11T14:15:51.202Z,971.28
2022-10-11T14:16:51.529Z,971.26
2022-10-11T14:17:51.823Z,971.20
2022-10-11T14:18:52.146Z,971.24
2022-10-11T14:19:52.449Z,971.25
2022-10-11T14:20:52.747Z,971.27
2022-10-11T14:21:53.052Z,971.30
2022-10-11T14:22:53.521Z,971.30
2022-10-11T14:23:53.658Z,971.28
2022-10-11T14:24:53.962Z,971.29
2022-10-11T14:25:54.181Z,971.33
2022-10-11T14:26:54.532Z,971.28
2022-10-11T14:27:54.729Z,971.35
2022-10-11T14:28:55.077Z,971.31
2022-10-11T14:30:20.396Z,971.32
2022-10-11T14:30:56.595Z,971.27
2022-10-11T14:31:55.894Z,971.35
2022-10-11T14:32:56.052Z,971.35
2022-10-11T14:33:56.384Z,971.34
2022-10-11T14:34:56.686Z,971.33
2022-10-11T14:35:57.055Z,971.33
2022-10-11T14:36:57.247Z,971.32